Aérodrome :
LOGIN :

S'inscrire | Disclaimer

   EN    FR    IT 

 










Légende :    VFR   VFR Marginal   IFR   IFR Intensif   IFR Très Intensif
Visi : 
Plafond : 
>= 8 km
>= 3000ft
5 à 8 km
1000 à 3000 ft
1500m à 5 km
500 à 1000 ft
800 à 1500m
200 à 500 ft
< 800m
< 200 ft
Symboles :   Orages  Brouillard  Fortes neiges  Fortes précipitations  Vent > 20 kt
SIGMETs :   Divers  Orages  Givrage  Turbulence  Onde Orograph.  Cendres Volcan.







- Altitude de l'aérodrome : 885 ft
- Code IATA : BAS
- Voir les cartes d'approche


LFSB - Bale-Mulhouse

DERNIER METAR :
  • 250430Z 18004KT 150V230 9999 FEW055 SCT270 11/09 Q1015 NOSIG

METARs EXPIRÉS :
  • 250400Z 18005KT 9999 FEW055 12/09 Q1015 NOSIG
  • 250330Z 17005KT 9999 SCT053 12/09 Q1015 NOSIG
  • 250300Z 17004KT 120V210 9999 SCT053 12/10 Q1015 NOSIG
  • 250230Z 15003KT 9999 FEW053 11/09 Q1015 NOSIG
  • 250200Z AUTO 17004KT 9999 SCT052/// OVC066/// 12/09 Q1015 NOSIG

TAF TAF LFSB
Valide du 25 à 00h jusqu'au 26 à 00h UTC


242301Z 2500/2524 16004KT CAVOK
BECMG 2506/2508 26012KT
PROB40
TEMPO 2510/2517 29015G28KT -SHRA FEW040TCU BKN050
Météo : +33 3 89 90 31 11
Pas de NOTAMs connus pour ce terrain.



MET'MAP, la Météo Aéronautique d'un coup d'oeil ! - Copyright ORBIFLY Décembre 2007 - Disclaimer

ORBIFLY MET'MAP TEAM :

Programmation & Développement : Alexandra Zaïnal
Conception & Développement : Baudouin d'Aumeries
Co-Programmation & Développement : Marc-Olivier Méhu
Soutien technique & logistique : Manuel Goepfert

Contact : metmap@orbifly.com




SOURCES & CREDITS :

   NOAA